createdAt,value
2022-09-07T00:02:28.764Z,101079.25
2022-09-07T00:05:21.915Z,101086.31
2022-09-07T00:08:14.556Z,101084.53
2022-09-07T00:11:08.472Z,101088.00
2022-09-07T00:14:00.081Z,101088.78
2022-09-07T00:16:52.215Z,101100.19
2022-09-07T00:19:43.799Z,101087.78
2022-09-07T00:22:37.686Z,101079.88
2022-09-07T00:25:31.955Z,101077.47
2022-09-07T00:28:23.814Z,101072.16
2022-09-07T00:31:16.858Z,101073.28
2022-09-07T00:34:08.804Z,101066.00
2022-09-07T00:37:00.546Z,101058.16
2022-09-07T00:39:54.027Z,101064.03
2022-09-07T00:42:45.711Z,101064.00
2022-09-07T00:45:37.532Z,101068.31
2022-09-07T00:48:34.718Z,101050.88
2022-09-07T00:51:30.455Z,101042.16
2022-09-07T00:54:26.979Z,101028.94
2022-09-07T00:57:21.139Z,101036.78
2022-09-07T01:00:13.157Z,101048.94
2022-09-07T01:03:06.485Z,101042.53
2022-09-07T01:06:03.452Z,101039.69
2022-09-07T01:08:57.727Z,101049.38
2022-09-07T01:11:51.027Z,101048.31
2022-09-07T01:14:48.062Z,101033.59
2022-09-07T01:18:00.208Z,101038.19
2022-09-07T01:21:10.090Z,101036.44
2022-09-07T01:24:34.181Z,101027.78
2022-09-07T01:27:55.458Z,101028.38
2022-09-07T01:30:55.355Z,101022.16
2022-09-07T01:33:58.559Z,101020.66
2022-09-07T01:36:56.136Z,101017.66
2022-09-07T01:39:53.995Z,101017.75
2022-09-07T01:42:52.392Z,101024.84
2022-09-07T01:45:46.544Z,101024.66
2022-09-07T01:48:41.845Z,101018.50
2022-09-07T01:51:37.135Z,101008.22
2022-09-07T01:54:33.848Z,101002.91
2022-09-07T01:57:32.677Z,100990.88
2022-09-07T02:00:24.317Z,100999.69
2022-09-07T02:03:21.134Z,101006.50
2022-09-07T02:06:18.196Z,101002.97
2022-09-07T02:09:15.955Z,101008.69
2022-09-07T02:12:17.003Z,101002.53
2022-09-07T02:15:14.326Z,101005.94
2022-09-07T02:18:08.561Z,101008.69
2022-09-07T02:21:02.797Z,101002.41
2022-09-07T02:24:01.827Z,101008.69
2022-09-07T02:26:56.900Z,101006.78
2022-09-07T02:29:48.878Z,101009.47
2022-09-07T02:32:40.589Z,101002.59
2022-09-07T02:35:32.513Z,100995.25
2022-09-07T02:38:24.723Z,100998.78
2022-09-07T02:41:36.130Z,100993.41
2022-09-07T02:44:31.728Z,100997.03
2022-09-07T02:47:38.774Z,100994.34
2022-09-07T02:51:08.329Z,100993.63
2022-09-07T02:54:25.363Z,100986.34
2022-09-07T02:57:27.438Z,100985.34
2022-09-07T03:00:25.920Z,100987.97
2022-09-07T03:03:24.642Z,100989.72
2022-09-07T03:06:24.463Z,100983.78
2022-09-07T03:09:19.887Z,100985.63
2022-09-07T03:12:12.541Z,100976.66
2022-09-07T03:15:06.954Z,100977.47
2022-09-07T03:17:58.299Z,100969.78
2022-09-07T03:20:50.356Z,100975.66
2022-09-07T03:23:42.206Z,100974.41
2022-09-07T03:26:34.058Z,100967.47
2022-09-07T03:29:25.652Z,100962.00
2022-09-07T03:32:18.623Z,100951.66
2022-09-07T03:35:10.914Z,100952.47
2022-09-07T03:38:02.926Z,100940.06
2022-09-07T03:40:59.839Z,100949.75
2022-09-07T03:43:51.359Z,100941.00
2022-09-07T03:46:44.242Z,100940.72
2022-09-07T03:49:37.243Z,100939.16
2022-09-07T03:52:28.680Z,100937.25
2022-09-07T03:55:20.525Z,100934.47
2022-09-07T03:58:12.183Z,100927.59
2022-09-07T04:01:07.568Z,100923.28
2022-09-07T04:04:02.819Z,100916.88
2022-09-07T04:06:56.322Z,100918.53
2022-09-07T04:09:51.250Z,100914.25
2022-09-07T04:12:43.252Z,100912.09
2022-09-07T04:15:35.254Z,100915.75
2022-09-07T04:18:27.460Z,100907.75
2022-09-07T04:21:19.766Z,100904.50
2022-09-07T04:24:13.062Z,100886.84
2022-09-07T04:27:04.638Z,100883.72
2022-09-07T04:29:56.223Z,100877.75
2022-09-07T04:32:48.522Z,100874.59
2022-09-07T04:35:41.003Z,100877.28
2022-09-07T04:38:32.555Z,100886.72
2022-09-07T04:41:26.231Z,100888.50
2022-09-07T04:44:17.793Z,100899.19
2022-09-07T04:47:09.380Z,100887.72
2022-09-07T04:50:01.161Z,100886.06
2022-09-07T04:52:52.687Z,100893.09
2022-09-07T04:55:44.204Z,100914.97
2022-09-07T04:58:37.237Z,100922.13
2022-09-07T05:01:29.568Z,100929.13
2022-09-07T05:04:21.462Z,100950.34
2022-09-07T05:07:12.897Z,100979.41
2022-09-07T05:10:05.496Z,100995.41
2022-09-07T05:12:57.035Z,101011.34
2022-09-07T05:15:50.501Z,101016.13
2022-09-07T05:18:42.638Z,100989.94
2022-09-07T05:21:35.515Z,100985.28
2022-09-07T05:24:27.553Z,101017.66
2022-09-07T05:27:19.622Z,101013.72
2022-09-07T05:36:38.186Z,101021.13
2022-09-07T05:39:30.323Z,100988.75
2022-09-07T05:42:22.736Z,100999.38
2022-09-07T05:45:14.740Z,100995.78
2022-09-07T05:48:06.180Z,100969.66
2022-09-07T05:50:59.376Z,100987.22
2022-09-07T05:53:51.393Z,100980.50
2022-09-07T05:56:43.396Z,100983.75
2022-09-07T05:59:35.356Z,100972.38
2022-09-07T06:02:27.113Z,100961.88
2022-09-07T06:05:18.922Z,100957.28
2022-09-07T06:08:12.136Z,100964.31
2022-09-07T06:11:06.687Z,100962.81
2022-09-07T06:13:58.533Z,100954.75
2022-09-07T06:16:50.673Z,100958.34
2022-09-07T06:19:42.564Z,100958.16
2022-09-07T06:22:36.348Z,100960.81
2022-09-07T06:25:29.816Z,100969.69
2022-09-07T06:28:21.476Z,100978.28
2022-09-07T06:31:15.959Z,100988.47
2022-09-07T06:34:08.939Z,100971.41
2022-09-07T06:37:00.707Z,100989.19
2022-09-07T06:39:52.373Z,100982.19
2022-09-07T06:42:45.897Z,100985.50
2022-09-07T06:45:37.743Z,100988.22
2022-09-07T06:48:30.223Z,100989.13
2022-09-07T06:51:26.703Z,100987.41
2022-09-07T06:57:30.439Z,100987.28
2022-09-07T07:00:23.596Z,100978.72
2022-09-07T07:03:15.261Z,100979.94
2022-09-07T07:06:07.565Z,100981.22
2022-09-07T07:08:59.094Z,100981.97
2022-09-07T07:11:50.920Z,100977.97
2022-09-07T07:14:45.025Z,100979.94
2022-09-07T07:17:38.811Z,100972.97
2022-09-07T07:20:30.319Z,100977.06
2022-09-07T07:23:21.849Z,100966.34
2022-09-07T07:26:15.872Z,100959.53
2022-09-07T07:29:07.703Z,100965.59
2022-09-07T07:31:59.186Z,100959.97
2022-09-07T07:34:52.122Z,100958.81
2022-09-07T07:37:43.807Z,100962.31
2022-09-07T07:40:37.604Z,100956.25
2022-09-07T07:43:31.580Z,100947.50
2022-09-07T07:46:25.085Z,100941.91
2022-09-07T07:49:17.070Z,100925.94
2022-09-07T07:58:34.934Z,100880.06
2022-09-07T08:01:26.478Z,100888.59
2022-09-07T08:04:18.503Z,100901.50
2022-09-07T08:07:12.970Z,100892.56
2022-09-07T08:10:04.913Z,100909.34
2022-09-07T08:12:57.368Z,100893.91
2022-09-07T08:15:49.135Z,100888.75
2022-09-07T08:18:46.360Z,100893.72
2022-09-07T08:21:38.883Z,100892.94
2022-09-07T08:24:32.234Z,100891.44
2022-09-07T08:27:24.189Z,100885.38
2022-09-07T08:30:16.072Z,100884.84
2022-09-07T08:33:07.655Z,100892.94
2022-09-07T08:36:01.118Z,100901.84
2022-09-07T08:38:52.987Z,100921.16
2022-09-07T08:42:19.064Z,100906.25
2022-09-07T08:45:15.736Z,100903.81
2022-09-07T08:48:08.155Z,100892.66
2022-09-07T08:51:05.274Z,100897.97
2022-09-07T08:53:57.383Z,100895.34
2022-09-07T09:00:08.671Z,100920.59
2022-09-07T09:06:20.283Z,100947.09
2022-09-07T09:09:22.917Z,100957.84
2022-09-07T09:12:25.001Z,100958.00
2022-09-07T09:15:22.161Z,100973.81
2022-09-07T09:18:24.742Z,100954.81
2022-09-07T09:21:19.850Z,100950.22
2022-09-07T09:24:15.771Z,100931.50
2022-09-07T09:27:07.753Z,100942.03
2022-09-07T09:29:59.141Z,100933.63
2022-09-07T09:33:12.412Z,100933.97
2022-09-07T09:36:04.108Z,100942.81
2022-09-07T09:38:56.355Z,100937.22
2022-09-07T09:41:49.395Z,100943.66
2022-09-07T09:44:43.338Z,100948.22
2022-09-07T09:47:36.975Z,100953.78
2022-09-07T09:53:54.425Z,100941.19
2022-09-07T09:56:48.975Z,100948.66
2022-09-07T09:59:57.976Z,100947.22
2022-09-07T10:06:19.715Z,100937.31
2022-09-07T10:09:21.423Z,100928.72
2022-09-07T10:12:26.680Z,100935.28
2022-09-07T10:15:27.335Z,100940.91
2022-09-07T10:18:22.027Z,100945.47
2022-09-07T10:21:26.411Z,100954.66
2022-09-07T10:24:26.120Z,100947.31
2022-09-07T10:27:29.281Z,100939.22
2022-09-07T10:30:21.046Z,100938.13
2022-09-07T10:33:19.327Z,100936.88
2022-09-07T10:36:16.453Z,100937.16
2022-09-07T10:39:15.619Z,100935.16
2022-09-07T10:42:12.343Z,100927.34
2022-09-07T10:45:16.146Z,100929.81
2022-09-07T10:48:15.136Z,100939.28
2022-09-07T10:51:14.387Z,100939.69
2022-09-07T10:54:34.568Z,100945.25
2022-09-07T10:57:39.650Z,100937.59
2022-09-07T11:00:39.376Z,100933.59
2022-09-07T11:03:50.011Z,100932.94
2022-09-07T11:06:44.181Z,100931.69
2022-09-07T11:09:52.884Z,100930.91
2022-09-07T11:12:45.968Z,100934.31
2022-09-07T11:15:44.141Z,100924.03
2022-09-07T11:18:40.588Z,100920.81
2022-09-07T11:28:17.581Z,100913.34
2022-09-07T11:31:19.611Z,100910.19
2022-09-07T11:34:26.283Z,100900.66
2022-09-07T11:37:23.031Z,100898.19
2022-09-07T11:40:23.596Z,100889.72
2022-09-07T11:43:21.689Z,100887.41
2022-09-07T11:46:18.308Z,100879.41
2022-09-07T11:49:17.334Z,100884.09
2022-09-07T11:52:20.090Z,100877.34
2022-09-07T11:55:19.684Z,100870.66
2022-09-07T11:58:35.828Z,100871.00
2022-09-07T12:01:37.976Z,100870.13
2022-09-07T12:05:00.474Z,100868.25
2022-09-07T12:08:15.355Z,100863.13
2022-09-07T12:11:24.267Z,100862.50
2022-09-07T12:14:26.666Z,100867.34
2022-09-07T12:17:33.736Z,100861.25
2022-09-07T12:20:38.979Z,100863.91
2022-09-07T12:23:32.463Z,100854.41
2022-09-07T12:26:52.508Z,100859.06
2022-09-07T12:29:45.784Z,100857.22
2022-09-07T12:33:04.403Z,100852.91
2022-09-07T12:35:58.920Z,100844.19
2022-09-07T12:39:07.311Z,100848.81
2022-09-07T12:42:38.174Z,100840.75
2022-09-07T12:45:51.427Z,100853.22
2022-09-07T12:48:51.796Z,100857.56
2022-09-07T12:52:15.186Z,100853.19
2022-09-07T12:55:29.266Z,100854.06
2022-09-07T12:58:36.718Z,100864.81
2022-09-07T13:01:37.651Z,100847.03
2022-09-07T13:04:52.631Z,100847.84
2022-09-07T13:08:09.102Z,100847.94
2022-09-07T13:11:18.009Z,100838.31
2022-09-07T13:14:21.032Z,100842.81
2022-09-07T13:17:43.162Z,100847.50
2022-09-07T13:20:39.859Z,100839.59
2022-09-07T13:23:34.199Z,100839.63
2022-09-07T13:26:53.635Z,100845.84
2022-09-07T13:29:50.696Z,100836.03
2022-09-07T13:35:59.017Z,100845.81
2022-09-07T13:38:51.853Z,100831.63
2022-09-07T13:41:47.684Z,100831.81
2022-09-07T13:44:40.061Z,100835.41
2022-09-07T13:47:53.960Z,100840.72
2022-09-07T13:50:53.564Z,100835.31
2022-09-07T13:53:57.611Z,100839.69
2022-09-07T13:56:57.937Z,100827.19
2022-09-07T13:59:52.840Z,100833.44
2022-09-07T14:02:45.391Z,100831.56
2022-09-07T14:05:38.606Z,100828.97
2022-09-07T14:08:32.012Z,100830.81
2022-09-07T14:11:26.019Z,100828.13
2022-09-07T14:14:20.373Z,100823.75
2022-09-07T14:17:16.158Z,100829.03
2022-09-07T14:20:15.507Z,100823.59
2022-09-07T14:23:17.122Z,100820.75
2022-09-07T14:26:16.594Z,100820.69
2022-09-07T14:29:23.314Z,100819.88
2022-09-07T14:32:18.774Z,100820.81
2022-09-07T14:35:12.585Z,100821.03
2022-09-07T14:38:08.215Z,100820.34
2022-09-07T14:41:03.569Z,100816.00
2022-09-07T14:43:56.750Z,100817.09
2022-09-07T14:46:54.646Z,100821.44
2022-09-07T14:49:52.073Z,100811.69
2022-09-07T14:53:33.900Z,100812.47
2022-09-07T14:56:04.008Z,100823.81
2022-09-07T14:58:55.768Z,100806.91
2022-09-07T15:01:47.695Z,100805.06
2022-09-07T15:04:39.723Z,100803.13
2022-09-07T15:07:38.972Z,100803.31
2022-09-07T15:10:36.892Z,100807.84
2022-09-07T15:13:34.217Z,100810.63
2022-09-07T15:16:28.332Z,100809.69
2022-09-07T15:19:31.418Z,100799.94
2022-09-07T15:22:23.369Z,100794.63
2022-09-07T15:25:15.324Z,100792.88
2022-09-07T15:28:07.459Z,100798.09
2022-09-07T15:34:13.631Z,100805.06
2022-09-07T15:38:00.950Z,100797.03
2022-09-07T15:40:20.604Z,100797.84
2022-09-07T15:43:20.359Z,100792.72
2022-09-07T15:46:14.657Z,100791.91
2022-09-07T15:49:06.486Z,100791.00
2022-09-07T15:52:05.510Z,100790.09
2022-09-07T15:54:57.651Z,100792.72
2022-09-07T15:57:54.566Z,100782.22
2022-09-07T16:01:51.523Z,100775.06
2022-09-07T16:04:04.671Z,100783.88
2022-09-07T16:06:56.740Z,100773.25
2022-09-07T16:09:48.927Z,100781.19
2022-09-07T16:13:01.172Z,100787.44
2022-09-07T16:15:54.209Z,100778.56
2022-09-07T16:18:47.194Z,100779.47
2022-09-07T16:21:41.059Z,100773.25
2022-09-07T16:24:34.040Z,100771.53
2022-09-07T16:27:28.111Z,100767.06
2022-09-07T16:30:22.301Z,100765.28
2022-09-07T16:33:14.266Z,100767.03
2022-09-07T16:36:09.176Z,100774.09
2022-09-07T16:39:03.075Z,100774.97
2022-09-07T16:41:55.061Z,100771.34
2022-09-07T16:44:46.826Z,100770.34
2022-09-07T16:47:38.431Z,100764.09
2022-09-07T16:50:29.913Z,100764.09
2022-09-07T16:53:21.795Z,100754.34
2022-09-07T16:56:17.004Z,100763.09
2022-09-07T16:59:10.228Z,100754.31
2022-09-07T17:02:02.168Z,100763.94
2022-09-07T17:04:53.727Z,100760.41
2022-09-07T17:07:45.096Z,100766.56
2022-09-07T17:10:36.918Z,100770.06
2022-09-07T17:13:31.341Z,100766.47
2022-09-07T17:16:24.860Z,100763.81
2022-09-07T17:19:32.671Z,100761.84
2022-09-07T17:22:26.312Z,100765.41
2022-09-07T17:25:18.135Z,100766.09
2022-09-07T17:28:10.173Z,100769.50
2022-09-07T17:31:07.956Z,100765.06
2022-09-07T17:34:01.467Z,100774.56
2022-09-07T17:36:52.888Z,100772.78
2022-09-07T17:39:44.554Z,100769.22
2022-09-07T17:45:47.891Z,100771.75
2022-09-07T17:48:40.597Z,100769.88
2022-09-07T17:51:33.438Z,100775.75
2022-09-07T17:54:25.852Z,100780.88
2022-09-07T17:57:17.575Z,100770.91
2022-09-07T18:00:11.859Z,100786.66
2022-09-07T18:03:04.004Z,100785.66
2022-09-07T18:05:57.237Z,100775.78
2022-09-07T18:08:49.651Z,100781.88
2022-09-07T18:11:47.153Z,100780.94
2022-09-07T18:14:39.695Z,100792.25
2022-09-07T18:17:32.032Z,100793.91
2022-09-07T18:20:24.292Z,100791.16
2022-09-07T18:23:17.265Z,100792.84
2022-09-07T18:26:09.437Z,100798.91
2022-09-07T18:29:08.390Z,100792.59
2022-09-07T18:32:08.942Z,100801.31
2022-09-07T18:35:01.116Z,100795.91
2022-09-07T18:37:52.896Z,100801.91
2022-09-07T18:40:45.562Z,100805.31
2022-09-07T18:43:38.932Z,100810.56
2022-09-07T18:46:30.557Z,100811.44
2022-09-07T18:49:22.496Z,100818.38
2022-09-07T18:55:25.702Z,100823.34
2022-09-07T18:58:18.713Z,100833.81
2022-09-07T19:01:12.988Z,100834.59
2022-09-07T19:04:05.954Z,100824.75
2022-09-07T19:06:57.795Z,100831.69
2022-09-07T19:09:49.356Z,100830.72
2022-09-07T19:12:45.473Z,100829.78
2022-09-07T19:15:39.005Z,100831.41
2022-09-07T19:18:30.538Z,100827.78
2022-09-07T19:21:24.130Z,100832.09
2022-09-07T19:24:18.250Z,100817.09
2022-09-07T19:27:09.698Z,100818.81
2022-09-07T19:30:01.734Z,100813.50
2022-09-07T19:32:54.866Z,100813.44
2022-09-07T19:35:46.874Z,100814.28
2022-09-07T19:38:38.418Z,100812.44
2022-09-07T19:41:30.342Z,100823.75
2022-09-07T19:44:21.754Z,100821.91
2022-09-07T19:47:13.678Z,100815.72
2022-09-07T19:50:07.530Z,100821.88
2022-09-07T19:52:59.359Z,100823.66
2022-09-07T19:55:51.006Z,100818.44
2022-09-07T19:58:44.374Z,100811.34
2022-09-07T20:01:36.439Z,100820.09
2022-09-07T20:04:28.344Z,100814.78
2022-09-07T20:07:21.299Z,100815.63
2022-09-07T20:10:12.980Z,100819.97
2022-09-07T20:13:04.770Z,100814.66
2022-09-07T20:15:56.631Z,100815.53
2022-09-07T20:18:48.758Z,100802.31
2022-09-07T20:21:40.530Z,100801.47
2022-09-07T20:24:35.237Z,100795.22
2022-09-07T20:27:26.693Z,100791.59
2022-09-07T20:30:18.720Z,100795.88
2022-09-07T20:33:10.386Z,100798.47
2022-09-07T20:36:05.452Z,100799.28
2022-09-07T20:38:57.895Z,100794.88
2022-09-07T20:41:50.971Z,100801.78
2022-09-07T20:44:42.855Z,100811.16
2022-09-07T20:47:34.235Z,100803.94
2022-09-07T20:50:26.126Z,100812.63
2022-09-07T20:53:17.672Z,100805.44
2022-09-07T20:56:12.513Z,100809.72
2022-09-07T20:59:06.781Z,100811.44
2022-09-07T21:01:58.606Z,100807.81
2022-09-07T21:04:49.966Z,100800.69
2022-09-07T21:07:42.257Z,100810.31
2022-09-07T21:10:33.960Z,100798.78
2022-09-07T21:13:25.890Z,100802.22
2022-09-07T21:16:18.932Z,100806.53
2022-09-07T21:19:12.077Z,100805.72
2022-09-07T21:22:03.667Z,100796.84
2022-09-07T21:24:55.226Z,100800.22
2022-09-07T21:27:46.679Z,100800.22
2022-09-07T21:30:38.298Z,100794.00
2022-09-07T21:33:34.926Z,100794.03
2022-09-07T21:36:27.679Z,100786.94
2022-09-07T21:39:20.833Z,100789.50
2022-09-07T21:42:12.636Z,100778.88
2022-09-07T21:45:04.440Z,100780.53
2022-09-07T21:47:56.091Z,100779.56
2022-09-07T21:50:49.055Z,100778.59
2022-09-07T21:53:40.745Z,100774.13
2022-09-07T21:56:32.718Z,100771.44
2022-09-07T21:59:24.263Z,100768.75
2022-09-07T22:02:15.675Z,100769.53
2022-09-07T22:05:08.108Z,100764.22
2022-09-07T22:08:00.865Z,100759.72
2022-09-07T22:10:52.561Z,100762.31
2022-09-07T22:13:44.748Z,100762.25
2022-09-07T22:16:36.528Z,100774.44
2022-09-07T22:19:27.838Z,100772.59
2022-09-07T22:22:19.684Z,100764.59
2022-09-07T22:25:12.284Z,100770.66
2022-09-07T22:28:04.283Z,100766.25
2022-09-07T22:30:56.066Z,100761.75
2022-09-07T22:33:49.407Z,100759.78
2022-09-07T22:36:43.090Z,100756.19
2022-09-07T22:39:34.753Z,100759.56
2022-09-07T22:42:27.455Z,100753.19
2022-09-07T22:45:19.368Z,100743.41
2022-09-07T22:48:11.018Z,100745.03
2022-09-07T22:51:03.624Z,100749.38
2022-09-07T22:53:56.226Z,100748.47
2022-09-07T22:56:47.868Z,100746.69
2022-09-07T22:59:40.759Z,100725.53
2022-09-07T23:02:32.686Z,100731.66
2022-09-07T23:05:24.412Z,100731.47
2022-09-07T23:08:16.351Z,100727.81
2022-09-07T23:11:07.992Z,100721.63
2022-09-07T23:14:01.896Z,100719.78
2022-09-07T23:16:54.908Z,100718.84
2022-09-07T23:19:46.475Z,100716.09
2022-09-07T23:22:37.805Z,100716.09
2022-09-07T23:25:29.883Z,100716.94
2022-09-07T23:28:21.378Z,100718.53
2022-09-07T23:31:13.627Z,100711.50
2022-09-07T23:34:06.811Z,100703.53
2022-09-07T23:36:58.252Z,100710.50
2022-09-07T23:39:49.697Z,100709.50
2022-09-07T23:42:41.661Z,100705.88
2022-09-07T23:45:33.223Z,100707.53
2022-09-07T23:48:25.116Z,100717.16
2022-09-07T23:51:23.576Z,100718.00
2022-09-07T23:54:15.840Z,100708.31
2022-09-07T23:57:07.194Z,100706.41
2022-09-07T23:59:59.200Z,100699.25
